createdAt,value
2018-10-02T00:00:55.714Z,66.71
2018-10-02T00:01:55.790Z,66.78
2018-10-02T00:02:55.655Z,66.84
2018-10-02T00:03:55.747Z,66.51
2018-10-02T00:04:55.666Z,66.84
2018-10-02T00:05:55.677Z,66.32
2018-10-02T00:06:55.684Z,66.45
2018-10-02T00:07:55.661Z,66.46
2018-10-02T00:08:55.680Z,66.56
2018-10-02T00:09:55.717Z,66.24
2018-10-02T00:10:55.674Z,66.29
2018-10-02T00:11:55.656Z,66.29
2018-10-02T00:12:55.659Z,65.73
2018-10-02T00:13:55.699Z,65.69
2018-10-02T00:14:55.679Z,65.72
2018-10-02T00:15:55.806Z,65.92
2018-10-02T00:16:55.654Z,65.8
2018-10-02T00:17:55.773Z,65.54
2018-10-02T00:18:55.652Z,65.53
2018-10-02T00:19:55.728Z,65.83
2018-10-02T00:20:55.712Z,65.8
2018-10-02T00:21:55.724Z,65.72
2018-10-02T00:22:56.071Z,65.86
2018-10-02T00:23:55.687Z,65.63
2018-10-02T00:24:55.888Z,65.67
2018-10-02T00:25:55.650Z,65.52
2018-10-02T00:26:55.721Z,65.63
2018-10-02T00:27:55.945Z,65.5
2018-10-02T00:28:55.634Z,65.37
2018-10-02T00:29:55.682Z,65.79
2018-10-02T00:30:55.647Z,65.45
2018-10-02T00:31:55.854Z,65.52
2018-10-02T00:32:55.662Z,65.62
2018-10-02T00:33:56.045Z,65.7
2018-10-02T00:34:55.669Z,65.5
2018-10-02T00:35:55.890Z,65.47
2018-10-02T00:36:55.589Z,65.57
2018-10-02T00:37:55.872Z,65.67
2018-10-02T00:38:55.670Z,65.75
2018-10-02T00:39:55.981Z,65.71
2018-10-02T00:40:55.694Z,65.7
2018-10-02T00:41:55.759Z,65.94
2018-10-02T00:42:55.991Z,65.6
2018-10-02T00:43:55.748Z,65.67
2018-10-02T00:44:55.644Z,65.95
2018-10-02T00:45:55.620Z,65.85
2018-10-02T00:46:55.931Z,66.14
2018-10-02T00:47:55.714Z,65.99
2018-10-02T00:48:55.641Z,66.15
2018-10-02T00:49:55.645Z,65.95
2018-10-02T00:50:55.591Z,65.87
2018-10-02T00:51:55.699Z,66.01
2018-10-02T00:52:55.689Z,65.68
2018-10-02T00:53:55.661Z,66.09
2018-10-02T00:54:55.894Z,66.18
2018-10-02T00:55:55.634Z,66.58
2018-10-02T00:56:55.604Z,66.23
2018-10-02T00:57:55.597Z,66.15
2018-10-02T00:58:55.605Z,66.4
2018-10-02T00:59:55.620Z,66.34
2018-10-02T01:00:55.724Z,66.28
2018-10-02T01:01:55.626Z,66.05
2018-10-02T01:02:55.675Z,66.02
2018-10-02T01:03:55.688Z,65.96
2018-10-02T01:04:55.850Z,66.27
2018-10-02T01:05:55.736Z,66.71
2018-10-02T01:06:55.705Z,66.72
2018-10-02T01:07:55.589Z,66.58
2018-10-02T01:08:55.574Z,66.67
2018-10-02T01:09:55.971Z,66.51
2018-10-02T01:10:55.629Z,66.37
2018-10-02T01:11:55.593Z,66.12
2018-10-02T01:12:55.716Z,66.89
2018-10-02T01:13:55.787Z,66.69
2018-10-02T01:14:55.744Z,66.83
2018-10-02T01:15:55.969Z,67.31
2018-10-02T01:16:55.553Z,66.94
2018-10-02T01:17:55.566Z,67.28
2018-10-02T01:18:55.566Z,67.41
2018-10-02T01:19:55.622Z,67.75
2018-10-02T01:20:55.681Z,67.65
2018-10-02T01:21:55.588Z,67.79
2018-10-02T01:22:55.729Z,67.68
2018-10-02T01:23:55.562Z,67.88
2018-10-02T01:24:55.559Z,67.69
2018-10-02T01:25:55.556Z,67.86
2018-10-02T01:26:55.588Z,67.69
2018-10-02T01:27:55.549Z,67.5
2018-10-02T01:28:55.657Z,67.84
2018-10-02T01:29:55.559Z,67.96
2018-10-02T01:30:55.823Z,68.03
2018-10-02T01:31:55.543Z,67.89
2018-10-02T01:32:55.561Z,67.95
2018-10-02T01:33:55.550Z,67.27
2018-10-02T01:34:55.529Z,67.69
2018-10-02T01:35:55.563Z,68.28
2018-10-02T01:36:55.541Z,68.39
2018-10-02T01:37:55.556Z,68.4
2018-10-02T01:38:55.561Z,68.34
2018-10-02T01:39:55.569Z,68.12
2018-10-02T01:40:55.539Z,68.03
2018-10-02T01:41:55.542Z,68.51
2018-10-02T01:42:55.585Z,68.26
2018-10-02T01:43:55.573Z,67.93
2018-10-02T01:44:55.808Z,67.91
2018-10-02T01:45:55.506Z,67.84
2018-10-02T01:46:55.681Z,68.12
2018-10-02T01:47:55.604Z,68.25
2018-10-02T01:48:55.642Z,68.07
2018-10-02T01:49:55.748Z,67.84
2018-10-02T01:50:55.682Z,68.29
2018-10-02T01:51:55.645Z,68.64
2018-10-02T01:52:55.772Z,68.42
2018-10-02T01:53:55.784Z,68.41
2018-10-02T01:54:55.584Z,68.51
2018-10-02T01:55:55.535Z,68.88
2018-10-02T01:56:55.528Z,69.08
2018-10-02T01:57:55.619Z,69.06
2018-10-02T01:58:55.539Z,68.96
2018-10-02T01:59:55.482Z,69.05
2018-10-02T02:00:55.526Z,69.19
2018-10-02T02:01:55.573Z,69.34
2018-10-02T02:02:55.495Z,69.2
2018-10-02T02:03:55.746Z,69.54
2018-10-02T02:04:55.507Z,69.44
2018-10-02T02:05:55.504Z,69.06
2018-10-02T02:06:55.521Z,69.17
2018-10-02T02:07:55.496Z,69.33
2018-10-02T02:08:55.672Z,69.37
2018-10-02T02:09:55.535Z,69.06
2018-10-02T02:10:55.486Z,68.99
2018-10-02T02:11:55.507Z,69.11
2018-10-02T02:12:55.712Z,68.99
2018-10-02T02:13:55.495Z,68.99
2018-10-02T02:14:55.496Z,69.29
2018-10-02T02:15:55.482Z,68.94
2018-10-02T02:16:55.484Z,69.31
2018-10-02T02:17:55.484Z,69.16
2018-10-02T02:18:55.475Z,69.27
2018-10-02T02:19:55.461Z,69.38
2018-10-02T02:20:55.636Z,69.39
2018-10-02T02:21:55.792Z,69.4
2018-10-02T02:22:55.566Z,69.32
2018-10-02T02:23:55.631Z,69.77
2018-10-02T02:24:55.604Z,69.55
2018-10-02T02:25:55.590Z,69.33
2018-10-02T02:26:55.872Z,69.41
2018-10-02T02:27:55.550Z,69.66
2018-10-02T02:28:55.661Z,69.96
2018-10-02T02:29:55.607Z,69.91
2018-10-02T02:30:55.620Z,69.99
2018-10-02T02:31:55.462Z,70.06
2018-10-02T02:32:55.474Z,70.16
2018-10-02T02:33:55.605Z,70.39
2018-10-02T02:34:55.448Z,70.57
2018-10-02T02:35:55.456Z,70.47
2018-10-02T02:36:55.956Z,70.38
2018-10-02T02:37:55.467Z,70.26
2018-10-02T02:38:55.430Z,70.53
2018-10-02T02:39:55.452Z,70.38
2018-10-02T02:40:55.468Z,70.45
2018-10-02T02:41:55.488Z,70.35
2018-10-02T02:42:55.435Z,70.8
2018-10-02T02:43:55.452Z,70.95
2018-10-02T02:44:55.434Z,70.82
2018-10-02T02:46:55.555Z,70.98
2018-10-02T02:47:55.616Z,70.74
2018-10-02T02:48:55.573Z,70.47
2018-10-02T02:49:55.442Z,70.17
2018-10-02T02:50:55.425Z,70.13
2018-10-02T02:51:55.469Z,70.11
2018-10-02T02:52:55.425Z,70.18
2018-10-02T02:53:55.432Z,70.09
2018-10-02T02:54:55.433Z,70.24
2018-10-02T02:55:55.427Z,70.24
2018-10-02T02:56:55.568Z,70.41
2018-10-02T02:57:55.615Z,70.57
2018-10-02T02:58:55.430Z,70.11
2018-10-02T02:59:55.741Z,70.29
2018-10-02T03:00:55.431Z,70.09
2018-10-02T03:01:55.436Z,70.05
2018-10-02T03:02:55.417Z,69.98
2018-10-02T03:03:55.485Z,70.26
2018-10-02T03:04:55.417Z,70.34
2018-10-02T03:05:55.426Z,70.16
2018-10-02T03:06:55.501Z,70.38
2018-10-02T03:07:55.491Z,70.66
2018-10-02T03:08:55.404Z,70.42
2018-10-02T03:09:55.493Z,70.47
2018-10-02T03:10:55.516Z,70.63
2018-10-02T03:11:55.521Z,70.64
2018-10-02T03:12:55.432Z,70.71
2018-10-02T03:13:55.433Z,70.92
2018-10-02T03:14:55.425Z,70.81
2018-10-02T03:15:55.624Z,70.61
2018-10-02T03:16:55.400Z,70.32
2018-10-02T03:17:55.398Z,70.19
2018-10-02T03:18:55.436Z,71.14
2018-10-02T03:19:55.542Z,71.49
2018-10-02T03:20:55.482Z,71.22
2018-10-02T03:21:55.613Z,71.12
2018-10-02T03:22:55.495Z,71.11
2018-10-02T03:23:55.777Z,71.13
2018-10-02T03:24:55.576Z,71.05
2018-10-02T03:25:55.521Z,70.68
2018-10-02T03:26:55.379Z,71.05
2018-10-02T03:27:55.576Z,71.14
2018-10-02T03:28:55.376Z,70.89
2018-10-02T03:29:55.385Z,70.95
2018-10-02T03:30:55.415Z,71.24
2018-10-02T03:31:55.738Z,70.82
2018-10-02T03:32:55.412Z,70.86
2018-10-02T03:33:55.493Z,71.53
2018-10-02T03:34:55.405Z,71.68
2018-10-02T03:35:55.357Z,71.67
2018-10-02T03:36:55.775Z,71.56
2018-10-02T03:37:55.481Z,71.73
2018-10-02T03:38:55.360Z,71.7
2018-10-02T03:39:55.695Z,71.41
2018-10-02T03:40:55.410Z,71.91
2018-10-02T03:41:55.607Z,72.1
2018-10-02T03:42:55.612Z,72.05
2018-10-02T03:43:55.398Z,72.2
2018-10-02T03:44:55.457Z,72.1
2018-10-02T03:45:55.431Z,71.69
2018-10-02T03:46:55.408Z,71.62
2018-10-02T03:47:55.648Z,71.89
2018-10-02T03:48:55.487Z,71.85
2018-10-02T03:49:55.664Z,71.56
2018-10-02T03:50:55.363Z,71.95
2018-10-02T03:51:55.412Z,72.25
2018-10-02T03:52:55.478Z,71.85
2018-10-02T03:53:55.435Z,71.9
2018-10-02T03:54:55.351Z,72.11
2018-10-02T03:55:55.340Z,72.16
2018-10-02T03:56:55.377Z,72.48
2018-10-02T03:57:55.451Z,72.64
2018-10-02T03:58:55.366Z,72.54
2018-10-02T03:59:55.460Z,72.82
2018-10-02T04:00:55.360Z,72.79
2018-10-02T04:01:55.477Z,72.25
2018-10-02T04:02:55.614Z,72.44
2018-10-02T04:03:55.493Z,72.39
2018-10-02T04:04:55.399Z,72.85
2018-10-02T04:05:55.580Z,72.79
2018-10-02T04:06:55.381Z,72.32
2018-10-02T04:07:55.400Z,71.96
2018-10-02T04:08:55.356Z,72.36
2018-10-02T04:09:55.294Z,72.14
2018-10-02T04:10:55.350Z,72.26
2018-10-02T04:11:55.333Z,72.2
2018-10-02T04:12:55.337Z,72.35
2018-10-02T04:13:55.371Z,72.46
2018-10-02T04:14:55.413Z,72.08
2018-10-02T04:15:55.297Z,72.71
2018-10-02T04:16:55.289Z,72.56
2018-10-02T04:17:55.297Z,72.59
2018-10-02T04:18:55.318Z,72.24
2018-10-02T04:19:55.359Z,72.77
2018-10-02T04:20:55.304Z,72.85
2018-10-02T04:21:55.295Z,72.31
2018-10-02T04:22:55.307Z,72.5
2018-10-02T04:23:55.305Z,72.81
2018-10-02T04:24:55.299Z,73.21
2018-10-02T04:25:55.311Z,72.8
2018-10-02T04:26:55.314Z,73.07
2018-10-02T04:27:55.329Z,73.76
2018-10-02T04:28:55.292Z,73.78
2018-10-02T04:29:55.294Z,74.27
2018-10-02T04:30:55.350Z,73.66
2018-10-02T04:31:55.289Z,73.12
2018-10-02T04:32:55.645Z,73.53
2018-10-02T04:33:55.465Z,73.36
2018-10-02T04:34:55.284Z,72.89
2018-10-02T04:35:55.307Z,73.04
2018-10-02T04:36:55.341Z,73.25
2018-10-02T04:37:55.481Z,73.88
2018-10-02T04:38:55.487Z,73.75
2018-10-02T04:39:55.595Z,73.54
2018-10-02T04:40:55.393Z,74.02
2018-10-02T04:41:55.308Z,73.35
2018-10-02T04:42:55.613Z,73.6
2018-10-02T04:43:55.362Z,73.35
2018-10-02T04:44:55.430Z,73.82
2018-10-02T04:45:55.634Z,73.24
2018-10-02T04:46:55.553Z,73.78
2018-10-02T04:47:55.346Z,73.76
2018-10-02T04:48:55.251Z,73.41
2018-10-02T04:49:55.259Z,73.95
2018-10-02T04:50:55.324Z,74.13
2018-10-02T04:51:55.247Z,73.72
2018-10-02T04:52:55.322Z,73.84
2018-10-02T04:53:55.298Z,73.62
2018-10-02T04:54:55.310Z,73.82
2018-10-02T04:55:55.383Z,73.47
2018-10-02T04:56:55.506Z,73.44
2018-10-02T04:57:55.244Z,73.7
2018-10-02T04:58:55.358Z,73.87
2018-10-02T04:59:55.255Z,73.59
2018-10-02T05:00:55.266Z,73.97
2018-10-02T05:01:55.271Z,73.79
2018-10-02T05:02:55.526Z,74.67
2018-10-02T05:03:55.450Z,75.53
2018-10-02T05:04:56.057Z,75.32
2018-10-02T05:05:55.330Z,75.54
2018-10-02T05:06:55.308Z,75.4
2018-10-02T05:07:55.225Z,75.02
2018-10-02T05:08:55.253Z,75.33
2018-10-02T05:09:55.360Z,74.39
2018-10-02T05:10:58.703Z,75.22
2018-10-02T05:11:55.248Z,75.48
2018-10-02T05:12:55.546Z,74.89
2018-10-02T05:13:55.330Z,74.86
2018-10-02T05:14:55.436Z,74.61
2018-10-02T05:15:55.245Z,74.76
2018-10-02T05:16:55.239Z,75.29
2018-10-02T05:17:55.226Z,75.7
2018-10-02T05:18:55.616Z,75.7
2018-10-02T05:19:55.322Z,75.85
2018-10-02T05:20:55.283Z,75.85
2018-10-02T05:21:55.216Z,75.22
2018-10-02T05:22:55.461Z,75.22
2018-10-02T05:23:55.211Z,75.28
2018-10-02T05:24:55.270Z,75.62
2018-10-02T05:25:55.277Z,75.97
2018-10-02T05:26:55.208Z,75.32
2018-10-02T05:27:55.348Z,75.58
2018-10-02T05:28:55.312Z,75.75
2018-10-02T05:29:55.538Z,75.63
2018-10-02T05:30:55.743Z,75.67
2018-10-02T05:31:55.444Z,75.48
2018-10-02T05:32:55.256Z,75.2
2018-10-02T05:33:55.465Z,75.43
2018-10-02T05:34:55.308Z,75.91
2018-10-02T05:35:55.375Z,76.21
2018-10-02T05:36:55.575Z,76.17
2018-10-02T05:37:55.377Z,75.6
2018-10-02T05:38:55.579Z,75.8
2018-10-02T05:39:55.646Z,75.56
2018-10-02T05:40:55.365Z,75.88
2018-10-02T05:41:55.613Z,76.18
2018-10-02T05:42:55.311Z,75.95
2018-10-02T05:43:56.195Z,76.32
2018-10-02T05:44:55.565Z,76.83
2018-10-02T05:45:55.691Z,76.5
2018-10-02T05:46:55.393Z,76.37
2018-10-02T05:47:55.516Z,75.97
2018-10-02T05:48:56.370Z,76.27
2018-10-02T05:49:56.155Z,76.36
2018-10-02T05:50:57.611Z,76.68
2018-10-02T05:51:57.044Z,76.46
2018-10-02T05:52:56.431Z,76.55
2018-10-02T05:53:55.180Z,76.42
2018-10-02T05:54:57.994Z,76.48
2018-10-02T05:55:57.983Z,76.61
2018-10-02T05:56:55.134Z,76.47
2018-10-02T05:57:55.155Z,76.63
2018-10-02T05:58:55.166Z,76.75
2018-10-02T05:59:55.143Z,76.98
2018-10-02T06:00:55.134Z,76.82
2018-10-02T06:01:55.151Z,76.84
2018-10-02T06:02:55.190Z,77
2018-10-02T06:03:55.315Z,77.43
2018-10-02T06:04:55.360Z,77.1
2018-10-02T06:05:55.265Z,77.48
2018-10-02T06:06:55.200Z,77
2018-10-02T06:07:55.257Z,77.28
2018-10-02T06:08:55.400Z,77.36
2018-10-02T06:09:55.223Z,77.31
2018-10-02T06:10:55.184Z,77.48
2018-10-02T06:11:55.405Z,77.47
2018-10-02T06:12:55.311Z,77.18
2018-10-02T06:13:55.319Z,77.4
2018-10-02T06:14:55.216Z,77.1
2018-10-02T06:15:55.441Z,76.99
2018-10-02T06:16:55.338Z,77.06
2018-10-02T06:17:55.282Z,77.33
2018-10-02T06:18:55.185Z,77.37
2018-10-02T06:19:55.364Z,77.89
2018-10-02T06:20:55.216Z,77.76
2018-10-02T06:21:55.206Z,77.28
2018-10-02T06:22:55.234Z,77.52
2018-10-02T06:23:55.305Z,77.87
2018-10-02T06:24:55.187Z,77.53
2018-10-02T06:25:55.125Z,77.47
2018-10-02T06:26:55.208Z,77.56
2018-10-02T06:27:55.143Z,77.85
2018-10-02T06:28:55.278Z,77.89
2018-10-02T06:29:55.120Z,77.84
2018-10-02T06:30:55.618Z,77.86
2018-10-02T06:31:55.267Z,77.88
2018-10-02T06:32:55.164Z,77.77
2018-10-02T06:33:55.217Z,77.53
2018-10-02T06:34:55.105Z,77.24
2018-10-02T06:35:55.123Z,77.24
2018-10-02T06:36:55.528Z,77.5
2018-10-02T06:37:55.145Z,77.58
2018-10-02T06:38:55.162Z,77.16
2018-10-02T06:39:55.215Z,77
2018-10-02T06:40:55.142Z,77.48
2018-10-02T06:41:55.107Z,77.69
2018-10-02T06:42:55.311Z,77.21
2018-10-02T06:43:55.118Z,77.61
2018-10-02T06:44:55.193Z,77.71
2018-10-02T06:45:55.159Z,77.69
2018-10-02T06:46:55.117Z,77.68
2018-10-02T06:47:55.138Z,77.82
2018-10-02T06:48:55.478Z,77.88
2018-10-02T06:49:55.066Z,77.87
2018-10-02T06:50:55.279Z,77.77
2018-10-02T06:51:55.140Z,78.13
2018-10-02T06:52:55.386Z,78.1
2018-10-02T06:53:55.254Z,77.8
2018-10-02T06:54:55.330Z,78.17
2018-10-02T06:55:55.175Z,78.17
2018-10-02T06:56:55.167Z,78.44
2018-10-02T06:57:55.316Z,78.78
2018-10-02T06:58:55.085Z,79.15
2018-10-02T06:59:55.079Z,79.06
2018-10-02T07:00:55.076Z,78.8
2018-10-02T07:01:55.106Z,79.22
2018-10-02T07:02:55.179Z,79.28
2018-10-02T07:03:55.112Z,79.04
2018-10-02T07:04:55.062Z,79.19
2018-10-02T07:05:55.068Z,79.44
2018-10-02T07:06:55.157Z,78.85
2018-10-02T07:07:55.061Z,79.39
2018-10-02T07:08:55.129Z,79.21
2018-10-02T07:09:55.037Z,79.15
2018-10-02T07:10:55.033Z,79.22
2018-10-02T07:11:55.040Z,79.13
2018-10-02T07:12:55.057Z,78.53
2018-10-02T07:13:55.019Z,78.68
2018-10-02T07:14:55.035Z,79.25
2018-10-02T07:15:55.064Z,79.09
2018-10-02T07:16:55.020Z,79.31
2018-10-02T07:17:55.022Z,79.1
2018-10-02T07:18:55.021Z,79.57
2018-10-02T07:19:55.018Z,79.64
2018-10-02T07:20:55.046Z,79.14
2018-10-02T07:21:55.019Z,79.97
2018-10-02T07:22:55.042Z,79.65
2018-10-02T07:23:55.019Z,79.78
2018-10-02T07:24:55.035Z,79.78
2018-10-02T07:25:55.070Z,79.64
2018-10-02T07:26:55.248Z,79.68
2018-10-02T07:27:55.413Z,79.62
2018-10-02T07:28:55.088Z,78.58
2018-10-02T07:29:55.336Z,78.64
2018-10-02T07:30:55.054Z,78.83
2018-10-02T07:31:55.241Z,78.74
2018-10-02T07:32:55.133Z,78.9
2018-10-02T07:33:55.218Z,79.08
2018-10-02T07:34:55.270Z,78.29
2018-10-02T07:35:55.012Z,78.73
2018-10-02T07:36:55.115Z,78.48
2018-10-02T07:37:55.149Z,78.96
2018-10-02T07:38:55.009Z,79.31
2018-10-02T07:39:55.053Z,79.28
2018-10-02T07:40:55.120Z,78.84
2018-10-02T07:41:55.385Z,79.03
2018-10-02T07:42:55.040Z,79.29
2018-10-02T07:43:54.949Z,79.27
2018-10-02T07:45:55.036Z,79.24
2018-10-02T07:46:55.123Z,78.57
2018-10-02T07:47:55.083Z,78.73
2018-10-02T07:48:55.263Z,78.74
2018-10-02T07:49:55.105Z,78.43
2018-10-02T07:50:55.072Z,78.61
2018-10-02T07:51:55.023Z,78.83
2018-10-02T07:52:54.990Z,78.38
2018-10-02T07:53:55.031Z,78.41
2018-10-02T07:54:54.957Z,78.17
2018-10-02T07:55:55.024Z,77.92
2018-10-02T07:56:55.263Z,77.96
2018-10-02T07:57:54.990Z,76.69
2018-10-02T07:58:55.339Z,76.76
2018-10-02T07:59:54.891Z,76.75
2018-10-02T08:00:55.088Z,76.15
2018-10-02T08:01:55.258Z,76.25
2018-10-02T08:02:55.328Z,76.1
2018-10-02T08:03:54.920Z,76.74
2018-10-02T08:04:55.013Z,76.69
2018-10-02T08:05:55.202Z,76.39
2018-10-02T08:06:54.969Z,76.16
2018-10-02T08:07:54.968Z,75.91
2018-10-02T08:08:55.033Z,75.44
2018-10-02T08:09:55.315Z,75.66
2018-10-02T08:10:54.964Z,75.59
2018-10-02T08:11:55.011Z,75.08
2018-10-02T08:12:54.973Z,74.7
2018-10-02T08:13:55.033Z,75.1
2018-10-02T08:14:55.028Z,74.75
2018-10-02T08:15:54.956Z,74.75
2018-10-02T08:16:54.976Z,74.3
2018-10-02T08:17:55.131Z,74.34
2018-10-02T08:18:55.775Z,73.67
2018-10-02T08:19:55.085Z,73.65
2018-10-02T08:20:55.177Z,73.51
2018-10-02T08:21:55.001Z,73.14
2018-10-02T08:22:55.083Z,73.6
2018-10-02T08:23:55.151Z,73.72
2018-10-02T08:24:55.064Z,73.52
2018-10-02T08:25:54.951Z,73.15
2018-10-02T08:26:55.241Z,73.27
2018-10-02T08:27:55.131Z,73.35
2018-10-02T08:28:54.972Z,73.25
2018-10-02T08:29:54.972Z,73.32
2018-10-02T08:30:54.958Z,73.18
2018-10-02T08:31:55.064Z,73.23
2018-10-02T08:32:54.983Z,73.28
2018-10-02T08:33:54.993Z,73.35
2018-10-02T08:34:54.897Z,73.08
2018-10-02T08:35:55.068Z,72.74
2018-10-02T08:36:54.914Z,72.67
2018-10-02T08:37:54.942Z,72.66
2018-10-02T08:38:54.967Z,72.56
2018-10-02T08:39:54.910Z,72.29
2018-10-02T08:40:54.919Z,72.26
2018-10-02T08:41:54.961Z,72.55
2018-10-02T08:42:54.989Z,72.56
2018-10-02T08:43:55.037Z,72.63
2018-10-02T08:44:54.954Z,72.65
2018-10-02T08:45:54.941Z,72.08
2018-10-02T08:46:54.909Z,71.93
2018-10-02T08:47:54.931Z,71.95
2018-10-02T08:48:54.968Z,71.7
2018-10-02T08:49:54.905Z,71.57
2018-10-02T08:50:54.918Z,71.01
2018-10-02T08:51:55.453Z,71.34
2018-10-02T08:52:54.942Z,71
2018-10-02T08:54:55.128Z,70.18
2018-10-02T08:55:54.898Z,70.01
2018-10-02T08:56:55.042Z,69.88
2018-10-02T08:57:55.137Z,70.22
2018-10-02T08:59:55.001Z,70.1
2018-10-02T09:00:54.977Z,69.43
2018-10-02T09:01:55.055Z,69.74
2018-10-02T09:02:55.016Z,69.8
2018-10-02T09:03:54.496Z,69.44
2018-10-02T09:04:55.026Z,69.32
2018-10-02T09:05:55.182Z,69.14
2018-10-02T09:06:54.529Z,68.56
2018-10-02T09:07:54.947Z,68.33
2018-10-02T09:08:54.976Z,68.12
2018-10-02T09:09:55.024Z,67.94
2018-10-02T09:10:55.029Z,67.96
2018-10-02T09:11:55.010Z,68.05
2018-10-02T09:12:55.020Z,67.85
2018-10-02T09:13:55.211Z,67.84
2018-10-02T09:14:54.891Z,67.68
2018-10-02T09:15:55.072Z,67.6
2018-10-02T09:16:54.877Z,67.58
2018-10-02T09:17:54.895Z,67.9
2018-10-02T09:18:55.009Z,67.31
2018-10-02T09:19:54.963Z,67.48
2018-10-02T09:20:54.898Z,67.32
2018-10-02T09:21:55.111Z,67.37
2018-10-02T09:22:54.904Z,67.81
2018-10-02T09:23:55.101Z,67.75
2018-10-02T09:24:55.116Z,67.6
2018-10-02T09:25:54.953Z,66.78
2018-10-02T09:26:55.115Z,67.01
2018-10-02T09:27:54.816Z,67.25
2018-10-02T09:28:54.850Z,67.43
2018-10-02T09:29:54.945Z,67.44
2018-10-02T09:30:55.261Z,67.72
2018-10-02T09:31:54.961Z,67.92
2018-10-02T09:32:54.985Z,68.49
2018-10-02T09:33:55.015Z,68.94
2018-10-02T09:34:55.058Z,69.11
2018-10-02T09:35:55.074Z,69.79
2018-10-02T09:36:54.900Z,70.33
2018-10-02T09:37:54.911Z,70.73
2018-10-02T09:38:55.089Z,69.19
2018-10-02T09:39:55.067Z,69.92
2018-10-02T09:40:55.135Z,69.41
2018-10-02T09:41:54.837Z,69.01
2018-10-02T09:42:55.348Z,68.86
2018-10-02T09:43:55.031Z,68.84
2018-10-02T09:44:54.930Z,68.56
2018-10-02T09:45:54.881Z,68.7
2018-10-02T09:46:54.918Z,68.81
2018-10-02T09:47:55.087Z,68.78
2018-10-02T09:48:54.871Z,68.95
2018-10-02T09:49:55.080Z,68.64
2018-10-02T09:50:55.262Z,67.1
2018-10-02T09:51:55.414Z,66.83
2018-10-02T09:52:54.939Z,66.31
2018-10-02T09:53:54.796Z,65.69
2018-10-02T09:54:54.943Z,65.57
2018-10-02T09:55:54.951Z,65.56
2018-10-02T09:56:54.826Z,65.09
2018-10-02T09:57:54.804Z,64.87
2018-10-02T09:58:54.802Z,64.8
2018-10-02T09:59:54.797Z,64.56
2018-10-02T10:00:54.845Z,65.04
2018-10-02T10:01:54.775Z,65.79
2018-10-02T10:02:54.877Z,65.95
2018-10-02T10:03:54.915Z,66.42
2018-10-02T10:04:54.778Z,65.23
2018-10-02T10:05:54.844Z,65.96
2018-10-02T10:06:54.810Z,66.53
2018-10-02T10:07:54.796Z,66.92
2018-10-02T10:08:54.829Z,66.45
2018-10-02T10:09:54.798Z,66.58
2018-10-02T10:10:54.800Z,67.8
2018-10-02T10:11:54.774Z,67.73
2018-10-02T10:12:54.816Z,67.04
2018-10-02T10:13:54.761Z,67.2
2018-10-02T10:14:54.793Z,67.04
2018-10-02T10:15:54.800Z,66.1
2018-10-02T10:16:54.839Z,65.26
2018-10-02T10:17:54.891Z,65.48
2018-10-02T10:18:54.951Z,65.56
2018-10-02T10:19:54.963Z,65.49
2018-10-02T10:20:55.186Z,65.02
2018-10-02T10:21:54.757Z,65.57
2018-10-02T10:22:55.154Z,64.99
2018-10-02T10:23:54.955Z,64.83
2018-10-02T10:24:54.857Z,64.16
2018-10-02T10:25:54.813Z,63.57
2018-10-02T10:26:55.025Z,64.18
2018-10-02T10:27:54.786Z,63.87
2018-10-02T10:28:54.884Z,63.86
2018-10-02T10:29:54.766Z,63.96
2018-10-02T10:30:54.744Z,63.83
2018-10-02T10:31:55.058Z,63.74
2018-10-02T10:32:54.894Z,63.43
2018-10-02T10:33:55.167Z,63.63
2018-10-02T10:34:54.783Z,63.29
2018-10-02T10:35:54.759Z,63.31
2018-10-02T10:36:54.825Z,63.56
2018-10-02T10:37:54.754Z,63.79
2018-10-02T10:38:54.758Z,63.6
2018-10-02T10:39:55.043Z,63.53
2018-10-02T10:40:55.026Z,63.42
2018-10-02T10:41:54.885Z,63.68
2018-10-02T10:42:54.930Z,63.82
2018-10-02T10:43:54.782Z,63.43
2018-10-02T10:44:54.797Z,63.15
2018-10-02T10:45:54.763Z,63.3
2018-10-02T10:46:54.762Z,63.17
2018-10-02T10:47:54.973Z,63.47
2018-10-02T10:48:54.965Z,63.65
2018-10-02T10:49:54.833Z,63.91
2018-10-02T10:50:54.707Z,64.05
2018-10-02T10:51:55.569Z,63.84
2018-10-02T10:52:54.961Z,63.65
2018-10-02T10:53:54.811Z,63.64
2018-10-02T10:54:54.719Z,63.47
2018-10-02T10:55:54.797Z,63.54
2018-10-02T10:56:55.016Z,63.62
2018-10-02T10:57:54.851Z,63.56
2018-10-02T10:58:54.781Z,63.6
2018-10-02T10:59:54.847Z,63.44
2018-10-02T11:00:54.943Z,63.48
2018-10-02T11:01:54.758Z,63.29
2018-10-02T11:02:55.015Z,63.28
2018-10-02T11:03:54.739Z,63.48
2018-10-02T11:04:54.835Z,63.36
2018-10-02T11:05:54.694Z,63.63
2018-10-02T11:06:54.721Z,63.38
2018-10-02T11:07:55.003Z,63.54
2018-10-02T11:08:54.905Z,63.7
2018-10-02T11:09:54.882Z,63.61
2018-10-02T11:10:55.140Z,63.84
2018-10-02T11:11:54.678Z,63.57
2018-10-02T11:12:54.689Z,63.21
2018-10-02T11:13:54.786Z,63.09
2018-10-02T11:14:54.785Z,63.11
2018-10-02T11:15:54.816Z,63.07
2018-10-02T11:16:54.893Z,62.87
2018-10-02T11:17:54.708Z,60.73
2018-10-02T11:18:54.726Z,60.9
2018-10-02T11:19:54.766Z,61.19
2018-10-02T11:20:54.700Z,61.41
2018-10-02T11:21:54.709Z,61.25
2018-10-02T11:22:54.674Z,61.29
2018-10-02T11:23:54.712Z,61.45
2018-10-02T11:24:54.679Z,61.41
2018-10-02T11:25:54.791Z,61.33
2018-10-02T11:26:54.672Z,61.57
2018-10-02T11:27:54.658Z,61.96
2018-10-02T11:28:54.656Z,62.17
2018-10-02T11:29:54.707Z,62.42
2018-10-02T11:30:54.668Z,62.35
2018-10-02T11:31:54.656Z,62.48
2018-10-02T11:32:54.658Z,62.67
2018-10-02T11:33:54.687Z,62.46
2018-10-02T11:34:54.652Z,62.47
2018-10-02T11:35:54.654Z,62.21
2018-10-02T11:36:54.678Z,62.27
2018-10-02T11:37:54.653Z,62.26
2018-10-02T11:38:54.645Z,62.4
2018-10-02T11:39:54.672Z,62.71
2018-10-02T11:40:54.653Z,62.93
2018-10-02T11:41:54.702Z,62.82
2018-10-02T11:42:54.691Z,62.29
2018-10-02T11:43:54.712Z,62.59
2018-10-02T11:44:55.073Z,62.49
2018-10-02T11:45:54.778Z,62.29
2018-10-02T11:46:54.672Z,62.53
2018-10-02T11:47:54.642Z,62.89
2018-10-02T11:48:54.709Z,63.12
2018-10-02T11:49:55.024Z,63.4
2018-10-02T11:50:54.729Z,63.62
2018-10-02T11:51:54.648Z,63.92
2018-10-02T11:52:54.906Z,64.27
2018-10-02T11:53:54.789Z,64.67
2018-10-02T11:54:54.608Z,64.52
2018-10-02T11:55:55.016Z,64.32
2018-10-02T11:56:54.619Z,64.61
2018-10-02T11:57:54.609Z,64.75
2018-10-02T11:58:54.755Z,65.09
2018-10-02T11:59:55.047Z,65.58
2018-10-02T12:00:54.823Z,65.5
2018-10-02T12:01:55.056Z,65.54
2018-10-02T12:02:54.812Z,65.54
2018-10-02T12:03:54.660Z,65.64
2018-10-02T12:04:54.642Z,65.78
2018-10-02T12:05:54.596Z,65.92
2018-10-02T12:06:54.733Z,65.9
2018-10-02T12:07:54.899Z,65.86
2018-10-02T12:08:54.711Z,65.85
2018-10-02T12:09:54.672Z,65.88
2018-10-02T12:10:54.663Z,65.84
2018-10-02T12:11:54.592Z,65.85
2018-10-02T12:12:54.749Z,66.17
2018-10-02T12:13:54.734Z,66.22
2018-10-02T12:14:54.681Z,66.56
2018-10-02T12:15:54.684Z,66.68
2018-10-02T12:16:54.731Z,66.49
2018-10-02T12:17:54.985Z,66.45
2018-10-02T12:18:54.786Z,66.36
2018-10-02T12:19:55.146Z,66.56
2018-10-02T12:20:54.656Z,66.39
2018-10-02T12:21:54.680Z,66.51
2018-10-02T12:22:54.604Z,66.75
2018-10-02T12:23:54.903Z,67.35
2018-10-02T12:24:54.666Z,67.46
2018-10-02T12:25:54.680Z,67.43
2018-10-02T12:26:54.596Z,68.4
2018-10-02T12:27:54.601Z,68.17
2018-10-02T12:28:54.605Z,68.2
2018-10-02T12:29:54.735Z,68.74
2018-10-02T12:30:54.575Z,67.9
2018-10-02T12:31:55.371Z,67.58
2018-10-02T12:32:54.591Z,67.65
2018-10-02T12:33:54.699Z,67.86
2018-10-02T12:35:54.575Z,66.88
2018-10-02T12:36:54.891Z,66.53
2018-10-02T12:37:54.590Z,65.96
2018-10-02T12:38:54.583Z,65.72
2018-10-02T12:39:54.715Z,65.43
2018-10-02T12:40:54.677Z,65.28
2018-10-02T12:41:54.815Z,64.6
2018-10-02T12:42:54.603Z,64.57
2018-10-02T12:43:54.608Z,64.48
2018-10-02T12:44:54.705Z,65.12
2018-10-02T12:45:54.612Z,65
2018-10-02T12:46:54.830Z,65.19
2018-10-02T12:47:56.161Z,65.35
2018-10-02T12:48:57.926Z,65.41
2018-10-02T12:49:56.928Z,65.37
2018-10-02T12:50:57.945Z,65.38
2018-10-02T12:51:57.881Z,65.93
2018-10-02T12:52:58.311Z,65.75
2018-10-02T12:53:54.561Z,66.27
2018-10-02T12:54:54.540Z,65.62
2018-10-02T12:55:54.557Z,65.2
2018-10-02T12:56:54.554Z,65.39
2018-10-02T12:57:54.569Z,65.49
2018-10-02T12:58:54.602Z,65.58
2018-10-02T12:59:54.613Z,65.16
2018-10-02T13:00:54.610Z,64.87